GTRO2: Cimmarron R.,Guthrie, OK

Data processed at Thu Jan 04 2018 23:36


All information presented herein is the property of the government of the United States of America and may be revised or deleted at any time without prior notice.
Dissemination of this information without the expressed written consent of the Public Affairs Office, Tulsa District U.S. Army Corps of Engineers is strictly prohibited.
These data are gathered electronically and, as presented, have not undergone any form of quality control. These data are not guaranteed to be valid or correct.
Go to home page.
Go to station list.

Upstream stations:

Downstream station:
Previous Day
Next Day
Current Day
    
SHEF ID:       GTRO2     Cimarron River near Guthrie, OK
STATION TYPE:  

               PRECIP     STAGE  RIV-FLOW  BAT-LOAD
                   in        ft       cfs      volt
              Ccp-Rev   Ccp-Rev   Ccp-Rev   Ccp-Rev
(US/Central)
01/02 00:00      0.00      6.35       417     12.33
01/02 01:00      0.00      6.44       460     12.25
01/02 02:00      0.00      6.52       500     12.25
01/02 03:00      0.00      6.64       564     12.17
01/02 04:00      0.00      6.55       515     12.17
01/02 05:00      0.00      6.51       495     12.17
01/02 06:00      0.00      6.49       484     12.09
01/02 07:00      0.00      6.52       500     12.09
01/02 08:00      0.00      6.54       510     12.09
01/02 09:00      0.00      6.57       526     12.09
01/02 10:00      0.00      6.58       531     12.33
01/02 11:00      0.00      6.50       490     12.65
01/02 12:00      0.00      6.52       500     13.05
01/02 13:00      0.00      6.47       474     13.13
01/02 14:00      0.00      6.47       474     13.13
01/02 15:00      0.00      6.42       450     13.13
01/02 16:00      0.00      6.41       445     13.13
01/02 17:00      0.00      6.42       450     12.97
01/02 18:00      0.00      6.40       440     12.65
01/02 19:00      0.00      6.41       445     12.49
01/02 20:00      0.00      6.40       440     12.41
01/02 21:00      0.00      6.42       450     12.41
01/02 22:00      0.00      6.41       445     12.33
01/02 23:00      0.00      6.38       431     12.33